createdAt,value
2019-01-09T00:01:58.050Z,5.80
2019-01-09T00:04:27.829Z,5.40
2019-01-09T00:06:57.587Z,7.60
2019-01-09T00:09:27.078Z,7.67
2019-01-09T00:11:56.779Z,8.10
2019-01-09T00:14:26.548Z,8.63
2019-01-09T00:16:56.574Z,8.13
2019-01-09T00:19:26.315Z,8.27
2019-01-09T00:21:55.933Z,6.60
2019-01-09T00:24:25.437Z,5.17
2019-01-09T00:26:55.292Z,4.23
2019-01-09T00:29:24.726Z,4.03
2019-01-09T00:31:54.428Z,4.07
2019-01-09T00:34:23.923Z,4.37
2019-01-09T00:36:53.515Z,4.87
2019-01-09T00:39:23.090Z,5.10
2019-01-09T00:41:52.543Z,5.50
2019-01-09T00:44:22.121Z,5.33
2019-01-09T00:46:52.070Z,5.43
2019-01-09T00:49:21.782Z,5.43
2019-01-09T00:51:51.309Z,5.73
2019-01-09T00:54:21.178Z,6.33
2019-01-09T00:56:51.050Z,14.23
2019-01-09T00:59:20.465Z,11.13
2019-01-09T01:02:01.013Z,7.83
2019-01-09T01:05:22.377Z,8.60
2019-01-09T01:08:56.815Z,8.33
2019-01-09T01:12:16.080Z,4.63
2019-01-09T01:15:37.200Z,4.47
2019-01-09T01:18:34.769Z,5.13
2019-01-09T01:21:13.041Z,10.77
2019-01-09T01:24:25.155Z,11.50
2019-01-09T01:27:03.032Z,13.67
2019-01-09T01:30:15.244Z,13.80
2019-01-09T01:33:19.488Z,15.17
2019-01-09T01:36:29.967Z,12.83
2019-01-09T01:39:46.807Z,13.73
2019-01-09T01:42:51.669Z,12.87
2019-01-09T01:45:48.938Z,12.27
2019-01-09T01:49:05.095Z,11.27
2019-01-09T01:51:59.255Z,12.77
2019-01-09T01:54:56.615Z,11.67
2019-01-09T01:58:08.502Z,12.13
2019-01-09T02:01:14.767Z,8.27
2019-01-09T02:04:13.554Z,7.87
2019-01-09T02:07:09.747Z,5.43
2019-01-09T02:09:58.442Z,4.93
2019-01-09T02:12:58.408Z,7.83
2019-01-09T02:15:53.392Z,8.13
2019-01-09T02:18:30.860Z,9.77
2019-01-09T02:21:42.961Z,10.10
2019-01-09T02:24:52.743Z,8.97
2019-01-09T02:28:00.184Z,9.90
2019-01-09T02:31:10.271Z,12.10
2019-01-09T02:33:39.925Z,10.43
2019-01-09T02:36:13.631Z,7.07
2019-01-09T02:38:40.940Z,7.43
2019-01-09T02:41:10.912Z,6.43
2019-01-09T02:43:40.634Z,6.03
2019-01-09T02:46:10.489Z,6.27
2019-01-09T02:48:40.104Z,6.90
2019-01-09T02:51:09.911Z,7.27
2019-01-09T02:53:39.457Z,8.13
2019-01-09T02:56:08.974Z,7.93
2019-01-09T02:58:38.772Z,7.43
2019-01-09T03:01:08.489Z,6.77
2019-01-09T03:03:38.150Z,6.80
2019-01-09T03:06:07.931Z,7.60
2019-01-09T03:08:37.673Z,8.83
2019-01-09T03:11:07.079Z,6.70
2019-01-09T03:13:36.677Z,5.57
2019-01-09T03:16:06.489Z,5.07
2019-01-09T03:18:36.381Z,7.97
2019-01-09T03:21:05.785Z,9.27
2019-01-09T03:23:35.179Z,9.50
2019-01-09T03:26:04.690Z,13.83
2019-01-09T03:28:34.457Z,19.77
2019-01-09T03:31:04.053Z,21.63
2019-01-09T03:33:33.750Z,22.97
2019-01-09T03:36:03.151Z,24.57
2019-01-09T03:38:32.562Z,22.83
2019-01-09T03:41:02.351Z,22.77
2019-01-09T03:43:32.239Z,23.73
2019-01-09T03:46:01.638Z,26.63
2019-01-09T03:48:31.058Z,26.83
2019-01-09T03:51:00.836Z,27.13
2019-01-09T03:53:30.692Z,26.63
2019-01-09T03:56:00.520Z,27.27
2019-01-09T03:58:30.105Z,25.40
2019-01-09T04:00:59.599Z,23.97
2019-01-09T04:03:29.593Z,20.30
2019-01-09T04:05:59.331Z,20.63
2019-01-09T04:08:29.155Z,21.03
2019-01-09T04:10:58.866Z,22.13
2019-01-09T04:13:28.661Z,22.47
2019-01-09T04:15:58.518Z,20.10
2019-01-09T04:18:28.351Z,19.70
2019-01-09T04:20:58.232Z,20.03
2019-01-09T04:23:27.809Z,24.70
2019-01-09T04:25:57.576Z,17.60
2019-01-09T04:28:27.274Z,12.43
2019-01-09T04:30:56.829Z,10.27
2019-01-09T04:33:26.640Z,13.83
2019-01-09T04:35:56.400Z,50.83
2019-01-09T04:38:25.930Z,17.33
2019-01-09T04:40:55.431Z,24.83
2019-01-09T04:43:25.140Z,21.93
2019-01-09T04:45:54.940Z,23.33
2019-01-09T04:48:24.668Z,21.90
2019-01-09T04:50:54.307Z,20.83
2019-01-09T04:53:24.098Z,23.87
2019-01-09T04:55:53.712Z,23.50
2019-01-09T04:58:23.167Z,26.00
2019-01-09T05:00:52.706Z,26.57
2019-01-09T05:03:22.556Z,26.93
2019-01-09T05:05:51.957Z,32.13
2019-01-09T05:08:21.551Z,30.03
2019-01-09T05:10:51.057Z,32.50
2019-01-09T05:13:20.911Z,30.47
2019-01-09T05:15:50.296Z,33.53
2019-01-09T05:18:19.845Z,23.40
2019-01-09T05:20:49.379Z,29.70
2019-01-09T05:23:18.911Z,27.07
2019-01-09T05:25:48.582Z,25.13
2019-01-09T05:28:18.340Z,46.37
2019-01-09T05:30:48.146Z,39.80
2019-01-09T05:33:17.727Z,37.57
2019-01-09T05:35:47.269Z,59.13
2019-01-09T05:38:17.165Z,47.67
2019-01-09T05:40:46.604Z,34.40
2019-01-09T05:43:16.141Z,32.83
2019-01-09T05:45:45.653Z,22.00
2019-01-09T05:48:15.306Z,18.63
2019-01-09T05:50:44.949Z,19.63
2019-01-09T05:53:14.358Z,16.20
2019-01-09T05:55:44.180Z,28.57
2019-01-09T05:58:13.700Z,25.90
2019-01-09T06:00:43.489Z,18.60
2019-01-09T06:03:13.076Z,18.07
2019-01-09T06:05:42.920Z,28.23
2019-01-09T06:08:12.769Z,23.17
2019-01-09T06:10:42.198Z,21.83
2019-01-09T06:13:12.031Z,25.13
2019-01-09T06:15:41.912Z,42.53
2019-01-09T06:18:11.601Z,26.57
2019-01-09T06:20:41.161Z,36.00
2019-01-09T06:23:10.982Z,43.67
2019-01-09T06:25:40.478Z,37.23
2019-01-09T06:28:10.339Z,26.57
2019-01-09T06:30:40.106Z,19.70
2019-01-09T06:33:09.510Z,18.63
2019-01-09T06:35:39.293Z,19.93
2019-01-09T06:38:08.796Z,22.73
2019-01-09T06:40:38.664Z,18.73
2019-01-09T06:43:08.242Z,19.83
2019-01-09T06:45:37.884Z,27.03
2019-01-09T06:48:07.671Z,35.53
2019-01-09T06:50:37.355Z,27.43
2019-01-09T06:53:06.926Z,23.33
2019-01-09T06:55:36.502Z,27.33
2019-01-09T06:58:05.877Z,29.43
2019-01-09T07:00:35.656Z,27.93
2019-01-09T07:03:05.416Z,36.37
2019-01-09T07:05:34.875Z,52.30
2019-01-09T07:08:04.427Z,33.80
2019-01-09T07:10:34.138Z,28.63
2019-01-09T07:13:04.054Z,90.57
2019-01-09T07:15:33.500Z,52.83
2019-01-09T07:18:03.193Z,48.50
2019-01-09T07:20:32.697Z,52.77
2019-01-09T07:23:02.291Z,38.47
2019-01-09T07:25:31.945Z,33.87
2019-01-09T07:28:01.490Z,25.93
2019-01-09T07:30:31.284Z,32.00
2019-01-09T07:33:00.709Z,50.70
2019-01-09T07:35:30.616Z,44.37
2019-01-09T07:38:00.564Z,48.23
2019-01-09T07:40:30.224Z,93.63
2019-01-09T07:42:59.653Z,47.17
2019-01-09T07:45:29.490Z,48.30
2019-01-09T07:47:58.979Z,29.70
2019-01-09T07:50:28.710Z,34.37
2019-01-09T07:52:58.350Z,68.67
2019-01-09T07:55:27.956Z,46.97
2019-01-09T07:57:57.682Z,38.00
2019-01-09T08:00:27.382Z,40.03
2019-01-09T08:02:56.775Z,37.67
2019-01-09T08:05:26.499Z,41.73
2019-01-09T08:07:56.349Z,40.73
2019-01-09T08:10:25.912Z,40.27
2019-01-09T08:12:55.666Z,36.70
2019-01-09T08:15:25.188Z,35.97
2019-01-09T08:17:54.825Z,34.60
2019-01-09T08:20:24.657Z,37.40
2019-01-09T08:22:54.416Z,38.27
2019-01-09T08:25:24.079Z,39.17
2019-01-09T08:27:53.541Z,40.53
2019-01-09T08:30:23.040Z,43.03
2019-01-09T08:32:52.951Z,43.33
2019-01-09T08:35:22.655Z,45.20
2019-01-09T08:37:52.404Z,65.67
2019-01-09T08:40:23.169Z,80.60
2019-01-09T08:42:53.049Z,53.63
2019-01-09T08:45:22.753Z,49.80
2019-01-09T08:47:52.503Z,58.80
2019-01-09T08:50:22.209Z,47.23
2019-01-09T08:52:51.605Z,48.57
2019-01-09T08:55:21.108Z,54.10
2019-01-09T08:57:50.906Z,65.60
2019-01-09T09:00:20.637Z,110.37
2019-01-09T09:02:50.173Z,60.10
2019-01-09T09:05:19.974Z,71.33
2019-01-09T09:07:57.552Z,64.13
2019-01-09T09:10:27.213Z,44.37
2019-01-09T09:12:56.656Z,45.73
2019-01-09T09:15:26.564Z,43.43
2019-01-09T09:17:56.561Z,55.33
2019-01-09T09:20:26.254Z,75.30
2019-01-09T09:22:55.638Z,71.77
2019-01-09T09:25:25.388Z,47.67
2019-01-09T09:27:55.144Z,46.30
2019-01-09T09:30:24.781Z,42.57
2019-01-09T09:32:57.477Z,46.13
2019-01-09T09:35:27.056Z,45.10
2019-01-09T09:37:56.468Z,47.90
2019-01-09T09:40:26.399Z,51.13
2019-01-09T09:42:56.195Z,48.90
2019-01-09T09:45:25.713Z,42.83
2019-01-09T09:47:55.108Z,52.73
2019-01-09T09:50:24.887Z,47.47
2019-01-09T09:52:54.692Z,45.90
2019-01-09T09:55:24.441Z,49.20
2019-01-09T09:57:54.019Z,54.40
2019-01-09T10:00:23.769Z,53.57
2019-01-09T10:02:53.406Z,49.63
2019-01-09T10:05:22.997Z,48.30
2019-01-09T10:07:52.395Z,50.93
2019-01-09T10:10:22.257Z,47.80
2019-01-09T10:12:51.664Z,47.20
2019-01-09T10:15:21.501Z,44.93
2019-01-09T10:17:51.394Z,44.60
2019-01-09T10:20:20.888Z,47.03
2019-01-09T10:22:50.616Z,47.27
2019-01-09T10:25:20.117Z,48.97
2019-01-09T10:27:49.776Z,44.50
2019-01-09T10:30:20.096Z,43.70
2019-01-09T10:32:49.648Z,48.90
2019-01-09T10:35:19.543Z,42.43
2019-01-09T10:37:49.813Z,42.07
2019-01-09T10:40:20.316Z,39.20
2019-01-09T10:42:49.805Z,39.73
2019-01-09T10:45:21.305Z,41.13
2019-01-09T10:47:51.250Z,41.00
2019-01-09T10:50:20.995Z,43.20
2019-01-09T10:52:50.880Z,45.10
2019-01-09T10:55:20.417Z,52.40
2019-01-09T10:57:50.140Z,41.07
2019-01-09T11:00:22.013Z,39.73
2019-01-09T11:02:51.771Z,39.80
2019-01-09T11:05:21.602Z,41.83
2019-01-09T11:07:51.092Z,43.00
2019-01-09T11:10:21.282Z,41.20
2019-01-09T11:12:50.812Z,46.13
2019-01-09T11:15:20.543Z,43.50
2019-01-09T11:17:50.276Z,42.83
2019-01-09T11:20:21.237Z,42.87
2019-01-09T11:22:51.065Z,65.57
2019-01-09T11:25:23.187Z,45.97
2019-01-09T11:27:52.896Z,47.93
2019-01-09T11:30:23.730Z,52.40
2019-01-09T11:32:53.224Z,48.57
2019-01-09T11:35:24.788Z,48.60
2019-01-09T11:37:54.558Z,58.87
2019-01-09T11:40:24.322Z,56.23
2019-01-09T11:42:53.914Z,59.17
2019-01-09T11:45:23.514Z,61.60
2019-01-09T11:47:53.297Z,61.80
2019-01-09T11:50:22.795Z,59.07
2019-01-09T11:52:52.683Z,59.50
2019-01-09T11:55:22.232Z,61.27
2019-01-09T11:57:51.843Z,57.00
2019-01-09T12:00:23.794Z,55.10
2019-01-09T12:02:53.378Z,47.53
2019-01-09T12:05:24.016Z,42.90
2019-01-09T12:07:53.647Z,60.60
2019-01-09T12:10:29.955Z,54.23
2019-01-09T12:12:55.851Z,197.60
2019-01-09T12:15:25.636Z,58.23
2019-01-09T12:17:55.380Z,73.07
2019-01-09T12:20:24.771Z,49.13
2019-01-09T12:22:54.754Z,56.63
2019-01-09T12:25:24.252Z,52.00
2019-01-09T12:27:54.223Z,37.57
2019-01-09T12:30:28.921Z,43.07
2019-01-09T12:32:58.840Z,32.60
2019-01-09T12:35:28.669Z,29.03
2019-01-09T12:37:58.360Z,30.77
2019-01-09T12:40:28.101Z,27.03
2019-01-09T12:42:57.514Z,54.07
2019-01-09T12:45:27.304Z,34.17
2019-01-09T12:47:56.988Z,23.40
2019-01-09T12:50:27.425Z,20.33
2019-01-09T12:52:57.174Z,22.70
2019-01-09T12:55:26.822Z,20.93
2019-01-09T12:57:56.605Z,24.23
2019-01-09T13:00:30.386Z,22.40
2019-01-09T13:03:00.172Z,27.43
2019-01-09T13:05:29.554Z,24.17
2019-01-09T13:07:58.953Z,45.00
2019-01-09T13:10:28.564Z,31.67
2019-01-09T13:12:58.209Z,40.33
2019-01-09T13:15:27.878Z,82.43
2019-01-09T13:17:57.612Z,63.10
2019-01-09T13:20:27.372Z,46.03
2019-01-09T13:22:56.897Z,47.57
2019-01-09T13:25:26.716Z,43.47
2019-01-09T13:27:56.581Z,47.33
2019-01-09T13:30:26.359Z,59.77
2019-01-09T13:32:56.071Z,52.50
2019-01-09T13:35:25.785Z,45.23
2019-01-09T13:37:55.588Z,48.83
2019-01-09T13:40:25.284Z,67.67
2019-01-09T13:42:55.004Z,54.97
2019-01-09T13:45:24.598Z,47.27
2019-01-09T13:47:54.461Z,44.73
2019-01-09T13:50:24.183Z,56.10
2019-01-09T13:52:53.929Z,48.93
2019-01-09T13:55:23.814Z,37.47
2019-01-09T13:57:53.485Z,76.70
2019-01-09T14:00:23.899Z,51.97
2019-01-09T14:02:53.308Z,36.60
2019-01-09T14:05:23.108Z,38.93
2019-01-09T14:07:52.891Z,28.80
2019-01-09T14:10:24.747Z,22.17
2019-01-09T14:12:54.481Z,35.57
2019-01-09T14:15:24.261Z,27.07
2019-01-09T14:17:53.705Z,31.17
2019-01-09T14:20:23.345Z,24.03
2019-01-09T14:22:52.965Z,23.83
2019-01-09T14:25:22.369Z,25.53
2019-01-09T14:27:51.999Z,23.60
2019-01-09T14:30:27.382Z,24.43
2019-01-09T14:32:57.203Z,25.50
2019-01-09T14:35:26.605Z,28.57
2019-01-09T14:37:56.004Z,28.07
2019-01-09T14:40:25.708Z,31.03
2019-01-09T14:42:55.454Z,27.60
2019-01-09T14:45:25.192Z,25.43
2019-01-09T14:47:54.880Z,24.87
2019-01-09T14:50:25.553Z,25.47
2019-01-09T14:52:55.099Z,41.20
2019-01-09T14:55:24.695Z,24.57
2019-01-09T14:57:54.566Z,25.93
2019-01-09T15:00:25.994Z,27.17
2019-01-09T15:02:55.961Z,22.43
2019-01-09T15:05:25.557Z,27.27
2019-01-09T15:07:55.240Z,25.93
2019-01-09T15:10:31.476Z,22.87
2019-01-09T15:13:01.114Z,27.53
2019-01-09T15:15:30.898Z,27.27
2019-01-09T15:18:00.493Z,25.70
2019-01-09T15:20:30.596Z,26.23
2019-01-09T15:23:00.284Z,29.10
2019-01-09T15:25:29.798Z,28.33
2019-01-09T15:27:59.617Z,26.33
2019-01-09T15:30:31.027Z,27.57
2019-01-09T15:33:00.725Z,24.33
2019-01-09T15:35:30.124Z,24.17
2019-01-09T15:37:59.733Z,28.90
2019-01-09T15:40:30.543Z,28.87
2019-01-09T15:43:00.583Z,26.37
2019-01-09T15:45:30.016Z,46.70
2019-01-09T15:47:59.479Z,30.17
2019-01-09T15:50:29.539Z,39.40
2019-01-09T15:52:59.030Z,44.33
2019-01-09T15:55:28.515Z,35.80
2019-01-09T15:57:58.226Z,25.67
2019-01-09T16:00:33.670Z,27.63
2019-01-09T16:03:03.581Z,27.10
2019-01-09T16:05:32.982Z,22.90
2019-01-09T16:08:02.945Z,28.37
2019-01-09T16:10:36.338Z,52.00
2019-01-09T16:13:07.240Z,47.90
2019-01-09T16:15:36.786Z,44.03
2019-01-09T16:18:06.867Z,46.83
2019-01-09T16:20:36.754Z,46.73
2019-01-09T16:23:06.179Z,47.13
2019-01-09T16:25:35.692Z,47.53
2019-01-09T16:28:06.393Z,45.40
2019-01-09T16:30:46.984Z,46.87
2019-01-09T16:33:16.589Z,51.20
2019-01-09T16:35:46.375Z,55.37
2019-01-09T16:38:15.892Z,49.77
2019-01-09T16:40:45.494Z,50.27
2019-01-09T16:43:15.637Z,62.07
2019-01-09T16:45:45.151Z,69.23
2019-01-09T16:48:16.252Z,54.60
2019-01-09T16:50:45.685Z,48.90
2019-01-09T16:53:15.158Z,45.90
2019-01-09T16:55:44.858Z,47.77
2019-01-09T16:58:14.344Z,54.27
2019-01-09T17:00:44.027Z,106.40
2019-01-09T17:03:13.456Z,96.07
2019-01-09T17:05:42.948Z,102.90
2019-01-09T17:08:12.828Z,92.13
2019-01-09T17:10:42.264Z,108.97
2019-01-09T17:13:12.024Z,122.97
2019-01-09T17:15:41.532Z,76.23
2019-01-09T17:18:11.349Z,54.73
2019-01-09T17:20:41.153Z,53.57
2019-01-09T17:23:10.827Z,54.87
2019-01-09T17:25:40.467Z,55.50
2019-01-09T17:28:10.561Z,54.80
2019-01-09T17:30:39.997Z,67.60
2019-01-09T17:33:09.540Z,54.23
2019-01-09T17:35:38.994Z,48.90
2019-01-09T17:38:08.911Z,46.73
2019-01-09T17:40:41.326Z,48.43
2019-01-09T17:43:09.710Z,57.07
2019-01-09T17:45:40.533Z,62.90
2019-01-09T17:48:10.294Z,56.77
2019-01-09T17:50:40.488Z,59.70
2019-01-09T17:53:10.264Z,53.97
2019-01-09T17:55:40.008Z,53.07
2019-01-09T17:58:09.469Z,47.27
2019-01-09T18:00:41.405Z,45.50
2019-01-09T18:03:11.178Z,50.03
2019-01-09T18:05:40.600Z,60.33
2019-01-09T18:08:11.133Z,48.63
2019-01-09T18:10:49.793Z,44.73
2019-01-09T18:13:11.865Z,43.07
2019-01-09T18:15:43.151Z,42.47
2019-01-09T18:18:12.701Z,41.60
2019-01-09T18:20:42.194Z,41.43
2019-01-09T18:23:11.618Z,43.10
2019-01-09T18:25:41.108Z,52.00
2019-01-09T18:28:12.119Z,103.50
2019-01-09T18:31:25.266Z,76.83
2019-01-09T18:34:03.143Z,60.43
2019-01-09T18:37:12.693Z,55.40
2019-01-09T18:40:01.363Z,55.27
2019-01-09T18:42:45.500Z,45.53
2019-01-09T18:46:01.902Z,46.93
2019-01-09T18:49:10.698Z,65.10
2019-01-09T18:52:11.059Z,87.20
2019-01-09T18:54:40.984Z,64.63
2019-01-09T18:57:10.471Z,54.97
2019-01-09T18:59:40.090Z,49.17
2019-01-09T19:02:11.617Z,50.17
2019-01-09T19:04:41.304Z,55.03
2019-01-09T19:07:11.353Z,49.97
2019-01-09T19:09:42.159Z,50.77
2019-01-09T19:12:12.206Z,49.77
2019-01-09T19:14:41.895Z,54.40
2019-01-09T19:17:11.860Z,48.10
2019-01-09T19:19:41.297Z,47.40
2019-01-09T19:22:10.953Z,42.03
2019-01-09T19:24:40.505Z,40.93
2019-01-09T19:27:10.350Z,42.03
2019-01-09T19:29:41.830Z,39.17
2019-01-09T19:32:11.456Z,37.97
2019-01-09T19:34:41.324Z,39.10
2019-01-09T19:37:11.023Z,38.97
2019-01-09T19:39:40.530Z,40.07
2019-01-09T19:42:10.242Z,39.97
2019-01-09T19:44:40.439Z,39.67
2019-01-09T19:47:10.224Z,44.53
2019-01-09T19:49:40.107Z,45.80
2019-01-09T19:52:09.592Z,45.43
2019-01-09T19:54:39.370Z,42.17
2019-01-09T19:57:09.099Z,44.30
2019-01-09T19:59:38.721Z,47.43
2019-01-09T20:02:08.359Z,48.53
2019-01-09T20:04:38.363Z,49.90
2019-01-09T20:07:08.030Z,49.07
2019-01-09T20:09:38.636Z,47.73
2019-01-09T20:12:08.491Z,47.43
2019-01-09T20:14:38.358Z,44.70
2019-01-09T20:17:08.179Z,46.40
2019-01-09T20:19:38.029Z,44.30
2019-01-09T20:22:07.859Z,44.03
2019-01-09T20:24:37.625Z,49.27
2019-01-09T20:27:07.093Z,48.33
2019-01-09T20:29:38.007Z,50.30
2019-01-09T20:32:07.745Z,51.63
2019-01-09T20:34:37.367Z,53.13
2019-01-09T20:37:06.981Z,69.97
2019-01-09T20:39:36.381Z,58.93
2019-01-09T20:42:06.026Z,58.70
2019-01-09T20:44:35.887Z,62.93
2019-01-09T20:47:05.857Z,83.87
2019-01-09T20:49:35.448Z,68.60
2019-01-09T20:52:05.472Z,52.37
2019-01-09T20:54:35.020Z,56.60
2019-01-09T20:57:06.347Z,52.73
2019-01-09T20:59:35.848Z,49.73
2019-01-09T21:02:05.917Z,45.00
2019-01-09T21:04:35.557Z,40.47
2019-01-09T21:07:05.600Z,40.73
2019-01-09T21:09:35.278Z,41.70
2019-01-09T21:12:05.254Z,42.20
2019-01-09T21:14:34.757Z,43.00
2019-01-09T21:17:04.783Z,39.20
2019-01-09T21:19:34.282Z,40.90
2019-01-09T21:22:04.338Z,40.53
2019-01-09T21:24:33.982Z,40.27
2019-01-09T21:27:04.224Z,39.20
2019-01-09T21:29:33.892Z,36.03
2019-01-09T21:32:03.389Z,36.23
2019-01-09T21:34:32.815Z,34.37
2019-01-09T21:37:02.605Z,33.13
2019-01-09T21:39:32.019Z,30.57
2019-01-09T21:42:02.590Z,32.73
2019-01-09T21:44:32.383Z,28.13
2019-01-09T21:47:02.078Z,28.27
2019-01-09T21:49:31.751Z,36.23
2019-01-09T21:52:01.286Z,48.77
2019-01-09T21:54:31.069Z,58.83
2019-01-09T21:57:00.783Z,62.80
2019-01-09T21:59:30.185Z,65.10
2019-01-09T22:01:59.793Z,64.83
2019-01-09T22:04:29.659Z,65.83
2019-01-09T22:06:59.155Z,65.00
2019-01-09T22:09:29.002Z,66.93
2019-01-09T22:12:02.539Z,66.27
2019-01-09T22:14:30.285Z,63.07
2019-01-09T22:16:59.793Z,66.10
2019-01-09T22:19:29.383Z,68.10
